sensor_id;sensor_type;location;lat;lon;timestamp;temperature;humidity
34522;DHT22;25561;48.888;8.736;2023-05-09T05:31:54;15.30;99.90
34522;DHT22;25561;48.888;8.736;2023-05-09T05:34:56;15.60;99.90
34522;DHT22;25561;48.888;8.736;2023-05-09T05:37:58;15.50;99.90
34522;DHT22;25561;48.888;8.736;2023-05-09T05:41:00;15.90;99.90
34522;DHT22;25561;48.888;8.736;2023-05-09T05:44:02;16.30;99.90
34522;DHT22;25561;48.888;8.736;2023-05-09T05:47:03;16.40;99.90
34522;DHT22;25561;48.888;8.736;2023-05-09T05:50:06;16.60;99.90
34522;DHT22;25561;48.888;8.736;2023-05-09T05:53:12;16.80;99.90
34522;DHT22;25561;48.888;8.736;2023-05-09T05:56:14;17.50;99.90
34522;DHT22;25561;48.888;8.736;2023-05-09T05:59:17;18.10;99.90
34522;DHT22;25561;48.888;8.736;2023-05-09T06:02:21;18.60;99.90
34522;DHT22;25561;48.888;8.736;2023-05-09T06:05:22;19.00;99.90
34522;DHT22;25561;48.888;8.736;2023-05-09T06:08:24;20.20;99.90
34522;DHT22;25561;48.888;8.736;2023-05-09T06:11:26;21.80;99.90
34522;DHT22;25561;48.888;8.736;2023-05-09T06:49:34;17.70;99.90
34522;DHT22;25561;48.888;8.736;2023-05-09T06:52:36;17.80;99.90
34522;DHT22;25561;48.888;8.736;2023-05-09T06:55:38;18.10;99.90
34522;DHT22;25561;48.888;8.736;2023-05-09T06:58:39;18.00;99.90
34522;DHT22;25561;48.888;8.736;2023-05-09T07:01:41;18.00;99.90
34522;DHT22;25561;48.888;8.736;2023-05-09T07:04:43;18.00;99.90
34522;DHT22;25561;48.888;8.736;2023-05-09T07:07:48;18.20;99.90
34522;DHT22;25561;48.888;8.736;2023-05-09T07:10:50;18.60;99.90
34522;DHT22;25561;48.888;8.736;2023-05-09T07:13:52;19.20;99.90
34522;DHT22;25561;48.888;8.736;2023-05-09T07:16:54;20.00;99.90
34522;DHT22;25561;48.888;8.736;2023-05-09T07:20:11;20.20;99.90
34522;DHT22;25561;48.888;8.736;2023-05-09T07:23:16;20.00;99.90
34522;DHT22;25561;48.888;8.736;2023-05-09T07:26:17;20.30;99.90
34522;DHT22;25561;48.888;8.736;2023-05-09T07:29:19;20.20;99.90
34522;DHT22;25561;48.888;8.736;2023-05-09T07:32:21;20.50;99.90
34522;DHT22;25561;48.888;8.736;2023-05-09T07:35:23;20.60;99.90
34522;DHT22;25561;48.888;8.736;2023-05-09T07:38:27;20.60;99.90
34522;DHT22;25561;48.888;8.736;2023-05-09T07:41:30;20.70;99.90
34522;DHT22;25561;48.888;8.736;2023-05-09T07:44:31;20.40;99.90
34522;DHT22;25561;48.888;8.736;2023-05-09T07:47:33;20.50;99.90
34522;DHT22;25561;48.888;8.736;2023-05-09T07:50:35;20.90;99.90
34522;DHT22;25561;48.888;8.736;2023-05-09T07:53:37;21.10;99.90
34522;DHT22;25561;48.888;8.736;2023-05-09T07:56:39;21.60;99.90
34522;DHT22;25561;48.888;8.736;2023-05-09T07:59:41;21.00;99.90
34522;DHT22;25561;48.888;8.736;2023-05-09T08:02:43;20.60;99.90
34522;DHT22;25561;48.888;8.736;2023-05-09T08:05:45;20.60;99.90
34522;DHT22;25561;48.888;8.736;2023-05-09T08:08:49;20.60;99.90
34522;DHT22;25561;48.888;8.736;2023-05-09T08:11:51;20.50;99.90
34522;DHT22;25561;48.888;8.736;2023-05-09T08:14:53;20.20;99.90
34522;DHT22;25561;48.888;8.736;2023-05-09T08:17:56;19.50;99.90
34522;DHT22;25561;48.888;8.736;2023-05-09T08:20:58;19.10;99.90
34522;DHT22;25561;48.888;8.736;2023-05-09T08:24:02;18.90;99.90
34522;DHT22;25561;48.888;8.736;2023-05-09T08:27:04;18.90;99.90
34522;DHT22;25561;48.888;8.736;2023-05-09T08:30:06;18.90;99.90
34522;DHT22;25561;48.888;8.736;2023-05-09T08:33:09;19.00;99.90
34522;DHT22;25561;48.888;8.736;2023-05-09T08:36:12;18.90;99.90
34522;DHT22;25561;48.888;8.736;2023-05-09T08:39:14;18.80;99.90
34522;DHT22;25561;48.888;8.736;2023-05-09T08:42:16;18.90;99.90
34522;DHT22;25561;48.888;8.736;2023-05-09T08:45:29;18.70;99.90
34522;DHT22;25561;48.888;8.736;2023-05-09T08:48:34;18.80;99.90
34522;DHT22;25561;48.888;8.736;2023-05-09T08:51:39;18.60;99.90
34522;DHT22;25561;48.888;8.736;2023-05-09T08:54:41;18.60;99.90
34522;DHT22;25561;48.888;8.736;2023-05-09T08:57:44;18.20;99.90
34522;DHT22;25561;48.888;8.736;2023-05-09T09:00:48;18.10;99.90
34522;DHT22;25561;48.888;8.736;2023-05-09T09:03:55;18.30;99.90
34522;DHT22;25561;48.888;8.736;2023-05-09T09:06:57;18.60;99.90
34522;DHT22;25561;48.888;8.736;2023-05-09T09:10:02;18.70;99.90
34522;DHT22;25561;48.888;8.736;2023-05-09T09:13:04;18.80;99.90
34522;DHT22;25561;48.888;8.736;2023-05-09T09:16:11;18.90;99.90
34522;DHT22;25561;48.888;8.736;2023-05-09T09:19:16;18.90;99.90
34522;DHT22;25561;48.888;8.736;2023-05-09T09:22:18;19.50;99.90
34522;DHT22;25561;48.888;8.736;2023-05-09T09:25:21;19.30;99.90
34522;DHT22;25561;48.888;8.736;2023-05-09T09:28:23;19.70;99.90
34522;DHT22;25561;48.888;8.736;2023-05-09T09:31:26;20.20;99.90
34522;DHT22;25561;48.888;8.736;2023-05-09T09:34:32;20.60;99.90
34522;DHT22;25561;48.888;8.736;2023-05-09T09:37:35;21.70;99.90
34522;DHT22;25561;48.888;8.736;2023-05-09T09:40:37;21.70;99.90
34522;DHT22;25561;48.888;8.736;2023-05-09T09:43:44;23.00;99.90
34522;DHT22;25561;48.888;8.736;2023-05-09T09:46:53;24.10;99.90
34522;DHT22;25561;48.888;8.736;2023-05-09T09:49:57;23.10;99.90
34522;DHT22;25561;48.888;8.736;2023-05-09T09:53:00;23.30;99.90
34522;DHT22;25561;48.888;8.736;2023-05-09T09:56:04;23.60;99.90
34522;DHT22;25561;48.888;8.736;2023-05-09T10:02:14;23.60;99.90
34522;DHT22;25561;48.888;8.736;2023-05-09T10:05:27;24.20;99.90
34522;DHT22;25561;48.888;8.736;2023-05-09T10:08:30;24.30;99.90
34522;DHT22;25561;48.888;8.736;2023-05-09T10:11:33;24.80;99.90
34522;DHT22;25561;48.888;8.736;2023-05-09T10:14:36;24.50;99.90
34522;DHT22;25561;48.888;8.736;2023-05-09T10:17:39;24.60;99.90
34522;DHT22;25561;48.888;8.736;2023-05-09T10:20:43;24.80;99.90
34522;DHT22;25561;48.888;8.736;2023-05-09T10:23:47;24.50;99.90
34522;DHT22;25561;48.888;8.736;2023-05-09T10:26:52;24.00;99.90
34522;DHT22;25561;48.888;8.736;2023-05-09T10:30:18;24.00;99.90
34522;DHT22;25561;48.888;8.736;2023-05-09T10:33:25;23.90;99.90
34522;DHT22;25561;48.888;8.736;2023-05-09T10:36:32;23.70;99.90
34522;DHT22;25561;48.888;8.736;2023-05-09T10:39:35;23.70;99.90
34522;DHT22;25561;48.888;8.736;2023-05-09T10:42:37;24.60;99.90
34522;DHT22;25561;48.888;8.736;2023-05-09T10:45:39;24.60;99.90
34522;DHT22;25561;48.888;8.736;2023-05-09T10:48:42;24.10;99.90
34522;DHT22;25561;48.888;8.736;2023-05-09T10:51:45;23.40;99.90
34522;DHT22;25561;48.888;8.736;2023-05-09T10:54:57;23.20;99.90
34522;DHT22;25561;48.888;8.736;2023-05-09T10:58:20;24.80;99.90
34522;DHT22;25561;48.888;8.736;2023-05-09T11:01:34;25.40;99.90
34522;DHT22;25561;48.888;8.736;2023-05-09T11:04:39;25.60;99.90
34522;DHT22;25561;48.888;8.736;2023-05-09T11:07:41;25.00;99.90
34522;DHT22;25561;48.888;8.736;2023-05-09T11:10:44;24.50;99.90
34522;DHT22;25561;48.888;8.736;2023-05-09T11:13:45;23.80;99.90
34522;DHT22;25561;48.888;8.736;2023-05-09T11:16:58;23.30;99.90
34522;DHT22;25561;48.888;8.736;2023-05-09T11:20:05;23.20;99.90
34522;DHT22;25561;48.888;8.736;2023-05-09T11:23:09;23.60;99.90
34522;DHT22;25561;48.888;8.736;2023-05-09T11:26:13;23.30;99.90
34522;DHT22;25561;48.888;8.736;2023-05-09T11:29:16;23.30;99.90
34522;DHT22;25561;48.888;8.736;2023-05-09T11:32:21;23.20;99.90
34522;DHT22;25561;48.888;8.736;2023-05-09T11:35:27;22.40;99.90
34522;DHT22;25561;48.888;8.736;2023-05-09T11:38:43;22.50;99.90
34522;DHT22;25561;48.888;8.736;2023-05-09T11:41:46;22.30;99.90
34522;DHT22;25561;48.888;8.736;2023-05-09T11:44:48;22.20;99.90
34522;DHT22;25561;48.888;8.736;2023-05-09T11:47:51;22.10;99.90
34522;DHT22;25561;48.888;8.736;2023-05-09T11:50:53;22.50;99.90
34522;DHT22;25561;48.888;8.736;2023-05-09T11:53:55;22.40;99.90
34522;DHT22;25561;48.888;8.736;2023-05-09T11:56:57;22.70;99.90
34522;DHT22;25561;48.888;8.736;2023-05-09T12:00:01;22.90;99.90
34522;DHT22;25561;48.888;8.736;2023-05-09T12:03:05;23.00;99.90
34522;DHT22;25561;48.888;8.736;2023-05-09T12:06:08;22.80;99.90
34522;DHT22;25561;48.888;8.736;2023-05-09T12:09:14;22.70;99.90
34522;DHT22;25561;48.888;8.736;2023-05-09T12:12:17;22.50;99.90
34522;DHT22;25561;48.888;8.736;2023-05-09T12:15:22;22.30;99.90
34522;DHT22;25561;48.888;8.736;2023-05-09T12:18:24;22.80;99.90
34522;DHT22;25561;48.888;8.736;2023-05-09T12:21:26;23.10;99.90
34522;DHT22;25561;48.888;8.736;2023-05-09T12:24:29;22.70;99.90
34522;DHT22;25561;48.888;8.736;2023-05-09T12:27:34;22.60;99.90
34522;DHT22;25561;48.888;8.736;2023-05-09T12:30:36;22.90;99.90
34522;DHT22;25561;48.888;8.736;2023-05-09T12:33:38;23.10;99.90
34522;DHT22;25561;48.888;8.736;2023-05-09T12:36:42;23.10;99.90
34522;DHT22;25561;48.888;8.736;2023-05-09T12:40:07;23.00;99.90
34522;DHT22;25561;48.888;8.736;2023-05-09T12:43:09;23.50;99.90
34522;DHT22;25561;48.888;8.736;2023-05-09T12:46:11;23.00;99.90
34522;DHT22;25561;48.888;8.736;2023-05-09T12:49:20;23.00;99.90
34522;DHT22;25561;48.888;8.736;2023-05-09T12:52:22;23.40;99.90
34522;DHT22;25561;48.888;8.736;2023-05-09T12:55:27;22.90;99.90
34522;DHT22;25561;48.888;8.736;2023-05-09T12:58:30;22.60;99.90
34522;DHT22;25561;48.888;8.736;2023-05-09T13:01:34;22.90;99.90
34522;DHT22;25561;48.888;8.736;2023-05-09T13:04:36;23.00;99.90
34522;DHT22;25561;48.888;8.736;2023-05-09T13:07:39;22.80;99.90
34522;DHT22;25561;48.888;8.736;2023-05-09T13:10:41;23.00;99.90
34522;DHT22;25561;48.888;8.736;2023-05-09T13:13:43;22.90;99.90
34522;DHT22;25561;48.888;8.736;2023-05-09T13:16:45;22.90;99.90
34522;DHT22;25561;48.888;8.736;2023-05-09T13:19:47;23.30;99.90
34522;DHT22;25561;48.888;8.736;2023-05-09T13:22:49;23.50;99.90
34522;DHT22;25561;48.888;8.736;2023-05-09T13:25:51;23.40;99.90
34522;DHT22;25561;48.888;8.736;2023-05-09T13:28:53;23.60;99.90
34522;DHT22;25561;48.888;8.736;2023-05-09T13:31:55;23.50;99.90
34522;DHT22;25561;48.888;8.736;2023-05-09T13:34:57;23.30;99.90
34522;DHT22;25561;48.888;8.736;2023-05-09T13:37:59;23.20;99.90
34522;DHT22;25561;48.888;8.736;2023-05-09T13:41:01;22.20;99.90
34522;DHT22;25561;48.888;8.736;2023-05-09T13:44:03;22.20;99.90
34522;DHT22;25561;48.888;8.736;2023-05-09T13:47:05;22.00;99.90
34522;DHT22;25561;48.888;8.736;2023-05-09T13:50:08;21.60;99.90
34522;DHT22;25561;48.888;8.736;2023-05-09T13:53:10;20.90;99.90
34522;DHT22;25561;48.888;8.736;2023-05-09T13:56:12;20.70;99.90
34522;DHT22;25561;48.888;8.736;2023-05-09T13:59:14;21.20;99.90
34522;DHT22;25561;48.888;8.736;2023-05-09T14:02:16;21.70;99.90
34522;DHT22;25561;48.888;8.736;2023-05-09T14:05:17;22.00;99.90
34522;DHT22;25561;48.888;8.736;2023-05-09T14:08:19;21.30;99.90
34522;DHT22;25561;48.888;8.736;2023-05-09T14:11:22;21.90;99.90
34522;DHT22;25561;48.888;8.736;2023-05-09T14:14:24;22.20;99.90
34522;DHT22;25561;48.888;8.736;2023-05-09T14:17:26;22.00;99.90
34522;DHT22;25561;48.888;8.736;2023-05-09T14:20:28;21.40;99.90
34522;DHT22;25561;48.888;8.736;2023-05-09T14:23:29;21.00;99.90
34522;DHT22;25561;48.888;8.736;2023-05-09T14:26:31;20.50;99.90
34522;DHT22;25561;48.888;8.736;2023-05-09T14:29:33;20.70;99.90
34522;DHT22;25561;48.888;8.736;2023-05-09T14:32:39;20.70;99.90
34522;DHT22;25561;48.888;8.736;2023-05-09T14:35:40;21.00;99.90
34522;DHT22;25561;48.888;8.736;2023-05-09T14:38:42;21.30;99.90
34522;DHT22;25561;48.888;8.736;2023-05-09T14:41:44;21.40;99.90
34522;DHT22;25561;48.888;8.736;2023-05-09T14:44:49;21.40;99.90
34522;DHT22;25561;48.888;8.736;2023-05-09T14:47:51;21.50;99.90
34522;DHT22;25561;48.888;8.736;2023-05-09T14:50:53;21.60;99.90
34522;DHT22;25561;48.888;8.736;2023-05-09T14:53:57;21.20;99.90
34522;DHT22;25561;48.888;8.736;2023-05-09T14:56:59;21.40;99.90
34522;DHT22;25561;48.888;8.736;2023-05-09T15:00:03;21.60;99.90
34522;DHT22;25561;48.888;8.736;2023-05-09T15:03:17;21.70;99.90
34522;DHT22;25561;48.888;8.736;2023-05-09T15:06:19;21.50;99.90
34522;DHT22;25561;48.888;8.736;2023-05-09T15:09:21;21.10;99.90
34522;DHT22;25561;48.888;8.736;2023-05-09T15:12:23;20.60;99.90
34522;DHT22;25561;48.888;8.736;2023-05-09T15:15:24;20.70;99.90
34522;DHT22;25561;48.888;8.736;2023-05-09T15:18:26;20.40;99.90
34522;DHT22;25561;48.888;8.736;2023-05-09T15:21:29;20.20;99.90
34522;DHT22;25561;48.888;8.736;2023-05-09T15:24:30;20.30;99.90
34522;DHT22;25561;48.888;8.736;2023-05-09T15:27:32;20.30;99.90
34522;DHT22;25561;48.888;8.736;2023-05-09T15:30:34;20.70;99.90
34522;DHT22;25561;48.888;8.736;2023-05-09T15:33:38;20.80;99.90
34522;DHT22;25561;48.888;8.736;2023-05-09T15:36:40;21.10;99.90
34522;DHT22;25561;48.888;8.736;2023-05-09T15:39:42;21.30;99.90
34522;DHT22;25561;48.888;8.736;2023-05-09T15:42:46;21.20;99.90
34522;DHT22;25561;48.888;8.736;2023-05-09T15:45:48;20.80;99.90
34522;DHT22;25561;48.888;8.736;2023-05-09T15:48:50;20.80;99.90
34522;DHT22;25561;48.888;8.736;2023-05-09T15:51:55;20.50;99.90
34522;DHT22;25561;48.888;8.736;2023-05-09T15:54:57;20.50;99.90
34522;DHT22;25561;48.888;8.736;2023-05-09T15:57:59;20.90;99.90
